Nearby METAR Reports

 

KOXC - Oxford/Waterbury, Connecticut, USA
Distance from station: SE 8mi, 12km
Updated: Tue, 16-Jan-2018 11:36pm EST
Light rain, Overcast
Light rain, Overcast
 Wind from ESE
Wind: ESE 5 mph , 7 km/h
Temperature: 34°F , 1°C
Wind Chill: 29°F , -2°C
Dew Point: 28°F , -2°C
Humidity: 81%
Barometer: 30.34 inHg , 1027.4 hPa
Summary: Light rain
Clouds: Overcast
Visibility: 10 miles , 16 km
Cloud details: Mostly cloudy 1200 ft
Mostly cloudy 1700 ft
Overcast 2300 ft
2018/01/17 04:36 KOXC 170436Z AUTO 11004KT 10SM -RA BKN012 BKN017 OVC023 01/M02 A3034 RMK AO2 RAB29 P0000 FZRANO
KDXR - Danbury, Connecticut, USA
Distance from station: SW 19mi, 30km
Updated: Tue, 16-Jan-2018 10:53pm EST
Overcast
Overcast
 Wind from E
Wind: E 3 mph , 6 km/h
Temperature: 30°F , -1°C
Dew Point: 25°F , -4°C
Humidity: 80%
Barometer: 30.37 inHg , 1028.4 hPa
Clouds: Overcast
Visibility: 8 miles , 13 km
Cloud details: Overcast 2400 ft
2018/01/17 03:53 KDXR 170353Z AUTO 08003KT 8SM OVC024 M01/M04 A3037 RMK AO2 SLP287 T10061039
 
KMMK - Meriden, Connecticut, USA
Distance from station: E 20mi, 33km
Updated: Tue, 16-Jan-2018 11:09pm EST
Overcast
Overcast
 Wind from calm
Wind: Calm
Temperature: 30°F , -1°C
Dew Point: 25°F , -4°C
Humidity: 80%
Barometer: 30.38 inHg , 1028.8 hPa
Clouds: Overcast
Visibility: 10 miles , 16 km
Cloud details: Mostly cloudy 1900 ft
Mostly cloudy 2700 ft
Overcast 3400 ft
2018/01/17 04:09 KMMK 170409Z AUTO 00000KT 10SM BKN019 BKN027 OVC034 M01/M04 A3038 RMK AO2 T10061039
KBDR - Bridgeport, Connecticut, USA
Distance from station: S 27mi, 44km
Updated: Tue, 16-Jan-2018 10:52pm EST
Overcast
Overcast
 Wind from E
Wind: E 6 mph , 9 km/h
Temperature: 36°F , 2°C
Wind Chill: 31°F , -1°C
Dew Point: 32°F , 0°C
Humidity: 87%
Barometer: 30.38 inHg , 1028.8 hPa
Clouds: Overcast
Visibility: 10 miles , 16 km
Cloud details: Partly cloudy 1900 ft
Partly cloudy 2600 ft
Overcast 3300 ft
2018/01/17 03:52 KBDR 170352Z AUTO 09005KT 10SM SCT019 SCT026 OVC033 02/00 A3038 RMK AO2 SLP286 T00170000
 
KHVN - New Haven/Tweed, Connecticut, USA
Distance from station: SE 27mi, 44km
Updated: Tue, 16-Jan-2018 10:53pm EST
Overcast
Overcast
 Wind from E
Wind: E 8 mph , 13 km/h
Temperature: 37°F , 3°C
Wind Chill: 31°F , -1°C
Dew Point: 30°F , -1°C
Humidity: 75%
Barometer: 30.38 inHg , 1028.8 hPa
Clouds: Overcast
Visibility: 10 miles , 16 km
Cloud details: Overcast 2000 ft
2018/01/17 03:53 KHVN 170353Z AUTO 10007KT 10SM OVC020 03/M01 A3038 RMK AO2 SLP286 T00331011
KHFD - Hartford/Brainar, Connecticut, USA
Distance from station: ENE 32mi, 52km
Updated: Tue, 16-Jan-2018 10:53pm EST
Overcast
Overcast
 Wind from NNE
Wind: NNE 3 mph , 6 km/h
Temperature: 32°F , 0°C
Dew Point: 25°F , -4°C
Humidity: 75%
Barometer: 30.39 inHg , 1029.1 hPa
Clouds: Overcast
Visibility: 10 miles , 16 km
Cloud details: Overcast 3400 ft
2018/01/17 03:53 KHFD 170353Z 02003KT 10SM OVC034 00/M04 A3039 RMK AO2 SLP292 T00001044
 
KPOU - Poughkeepsie, New York, USA
Distance from station: W 35mi, 56km
Updated: Tue, 16-Jan-2018 11:27pm EST
Light snow, Mist, Overcast
Light snow, Mist, Overcast
 Wind from calm
Wind: Calm
Temperature: 28°F , -2°C
Dew Point: 27°F , -3°C
Humidity: 93%
Barometer: 30.35 inHg , 1027.8 hPa
Summary: Light snow, Mist
Clouds: Overcast
Visibility: 1 1/2 miles , 2.4 km
Cloud details: Few Clouds 1100 ft
Overcast 2000 ft
2018/01/17 04:27 KPOU 170427Z AUTO 00000KT 1 1/2SM -SN BR FEW011 OVC020 M02/M03 A3035 RMK AO2 P0000 T10171028
KBDL - Windsor Locks, Connecticut, USA
Distance from station: NE 38mi, 62km
Updated: Tue, 16-Jan-2018 11:17pm EST
Overcast
Overcast
 Wind from calm
Wind: Calm
Temperature: 30°F , -1°C
Dew Point: 27°F , -3°C
Humidity: 86%
Barometer: 30.38 inHg , 1028.8 hPa
Clouds: Overcast
Visibility: 8 miles , 13 km
Cloud details: Partly cloudy 2900 ft
Overcast 3500 ft
2018/01/17 04:17 KBDL 170417Z 00000KT 8SM SCT029 OVC035 M01/M03 A3038 RMK AO2 T10111028
 
KSNC - Chester, Connecticut, USA
Distance from station: ESE 39mi, 63km
Updated: Tue, 16-Jan-2018 11:35pm EST
Light
Light
 Wind from ESE
Wind: ESE 5 mph , 7 km/h
Temperature: 34°F , 1°C
Wind Chill: 29°F , -2°C
Dew Point: 32°F , 0°C
Humidity: 93%
Barometer: 30.36 inHg , 1028.1 hPa
Summary: Light
Visibility: 9 miles , 14 km
2018/01/17 04:35 KSNC 170435Z AUTO 12004KT 9SM -UP 01/M00 A3036 RMK AO2
KHPN - White Plains, New York, USA
Distance from station: SW 42mi, 67km
Updated: Tue, 16-Jan-2018 10:56pm EST
Mostly cloudy
Mostly cloudy
 Wind from E
Wind: E 5 mph , 7 km/h
Temperature: 34°F , 1°C
Wind Chill: 29°F , -2°C
Dew Point: 28°F , -2°C
Humidity: 81%
Barometer: 30.34 inHg , 1027.4 hPa
Clouds: Mostly cloudy
Visibility: 10 miles , 16 km
Cloud details: Few Clouds 1500 ft
Mostly cloudy 2900 ft
Mostly cloudy 3500 ft
2018/01/17 03:56 KHPN 170356Z 08004KT 10SM FEW015 BKN029 BKN035 01/M02 A3034 RMK AO2 SLP282 T00061022
 
KSWF - Newburgh/Stewart, New York, USA
Distance from station: W 45mi, 72km
Updated: Tue, 16-Jan-2018 10:45pm EST
Light snow, Mist, Overcast
Light snow, Mist, Overcast
 Wind from calm
Wind: Calm
Temperature: 28°F , -2°C
Dew Point: 28°F , -2°C
Humidity: 100%
Barometer: 30.35 inHg , 1027.8 hPa
Summary: Light snow, Mist
Clouds: Overcast
Visibility: 1 1/2 miles , 2.4 km
Cloud details: Mostly cloudy 400 ft
Overcast 1000 ft
2018/01/17 03:45 KSWF 170345Z 00000KT 1 1/2SM -SN BR BKN004 OVC010 M02/M02 A3035
KBAF - Westfield, Massachusetts, USA
Distance from station: NNE 50mi, 80km
Updated: Tue, 16-Jan-2018 11:01pm EST
Light snow, Mist, Overcast
Light snow, Mist, Overcast
 Wind from calm
Wind: Calm
Temperature: 28°F , -2°C
Dew Point: 28°F , -2°C
Humidity: 100%
Barometer: 30.38 inHg , 1028.8 hPa
Summary: Light snow, Mist
Clouds: Overcast
Visibility: 1 1/2 miles , 2.4 km
Cloud details: Overcast 2600 ft
2018/01/17 04:01 KBAF 170401Z AUTO 00000KT 1 1/2SM -SN BR OVC026 M02/M02 A3038 RMK AO2 P0000 T10171022